createdAt,value
2018-04-22T00:01:26.547Z,65.83
2018-04-22T00:03:54.078Z,65.99
2018-04-22T00:06:21.642Z,66.28
2018-04-22T00:08:49.681Z,66.50
2018-04-22T00:11:17.250Z,66.63
2018-04-22T00:13:45.494Z,66.93
2018-04-22T00:16:14.834Z,67.05
2018-04-22T00:18:43.421Z,67.26
2018-04-22T00:21:10.995Z,67.41
2018-04-22T00:23:38.605Z,67.36
2018-04-22T00:26:06.132Z,67.49
2018-04-22T00:28:33.672Z,67.53
2018-04-22T00:31:01.678Z,67.61
2018-04-22T00:33:29.877Z,67.74
2018-04-22T00:35:57.984Z,67.89
2018-04-22T00:38:25.603Z,68.03
2018-04-22T00:40:53.563Z,68.20
2018-04-22T00:43:22.037Z,68.38
2018-04-22T00:45:49.568Z,68.50
2018-04-22T00:48:17.840Z,68.60
2018-04-22T00:50:45.443Z,68.83
2018-04-22T00:53:13.966Z,68.89
2018-04-22T00:55:41.487Z,68.79
2018-04-22T00:58:09.007Z,68.94
2018-04-22T01:00:36.593Z,68.98
2018-04-22T01:03:05.071Z,69.08
2018-04-22T01:05:33.173Z,69.20
2018-04-22T01:08:00.712Z,69.16
2018-04-22T01:10:28.247Z,68.98
2018-04-22T01:12:57.206Z,69.21
2018-04-22T01:15:25.515Z,69.24
2018-04-22T01:17:53.089Z,69.46
2018-04-22T01:20:21.346Z,69.77
2018-04-22T01:22:48.943Z,69.75
2018-04-22T01:25:16.479Z,69.80
2018-04-22T01:27:44.858Z,70.04
2018-04-22T01:30:13.619Z,70.00
2018-04-22T01:32:41.152Z,70.20
2018-04-22T01:35:09.925Z,70.09
2018-04-22T01:37:37.933Z,70.23
2018-04-22T01:40:06.035Z,69.86
2018-04-22T01:42:33.979Z,69.99
2018-04-22T01:45:01.511Z,70.28
2018-04-22T01:47:29.788Z,70.36
2018-04-22T01:49:57.338Z,70.28
2018-04-22T01:52:26.954Z,70.19
2018-04-22T01:54:55.258Z,70.12
2018-04-22T01:57:22.786Z,70.41
2018-04-22T01:59:50.329Z,70.45
2018-04-22T02:02:17.975Z,70.38
2018-04-22T02:04:45.491Z,70.69
2018-04-22T02:07:13.850Z,70.37
2018-04-22T02:09:41.383Z,70.79
2018-04-22T02:12:08.994Z,70.83
2018-04-22T02:14:37.348Z,71.12
2018-04-22T02:17:04.904Z,71.15
2018-04-22T02:19:32.439Z,71.31
2018-04-22T02:21:59.995Z,71.52
2018-04-22T02:24:27.514Z,71.28
2018-04-22T02:26:55.553Z,71.70
2018-04-22T02:29:23.831Z,71.77
2018-04-22T02:31:51.363Z,71.78
2018-04-22T02:34:19.047Z,72.10
2018-04-22T02:36:46.612Z,72.30
2018-04-22T02:39:14.346Z,72.29
2018-04-22T02:41:42.959Z,72.51
2018-04-22T02:44:10.593Z,72.66
2018-04-22T02:46:38.129Z,72.77
2018-04-22T02:49:06.577Z,72.88
2018-04-22T02:51:34.834Z,72.92
2018-04-22T02:54:02.367Z,73.14
2018-04-22T02:56:29.924Z,72.90
2018-04-22T02:58:57.482Z,73.10
2018-04-22T03:01:25.013Z,72.71
2018-04-22T03:03:52.555Z,72.74
2018-04-22T03:06:20.107Z,72.56
2018-04-22T03:08:47.647Z,72.08
2018-04-22T03:11:15.321Z,72.34
2018-04-22T03:13:43.840Z,73.35
2018-04-22T03:16:11.359Z,73.54
2018-04-22T03:18:38.878Z,73.97
2018-04-22T03:21:06.455Z,73.98
2018-04-22T03:23:33.979Z,73.87
2018-04-22T03:26:02.093Z,73.63
2018-04-22T03:28:29.624Z,73.84
2018-04-22T03:30:57.155Z,74.20
2018-04-22T03:33:24.751Z,74.36
2018-04-22T03:35:52.323Z,74.59
2018-04-22T03:38:20.740Z,74.47
2018-04-22T03:40:49.696Z,74.57
2018-04-22T03:43:17.734Z,74.51
2018-04-22T03:45:45.906Z,74.19
2018-04-22T03:48:14.816Z,73.86
2018-04-22T03:50:43.038Z,73.66
2018-04-22T03:53:11.355Z,73.74
2018-04-22T03:55:38.891Z,73.71
2018-04-22T03:58:06.442Z,73.72
2018-04-22T04:00:34.007Z,73.59
2018-04-22T04:03:01.526Z,73.37
2018-04-22T04:05:29.067Z,73.40
2018-04-22T04:07:56.675Z,73.05
2018-04-22T04:10:24.195Z,73.02
2018-04-22T04:12:52.771Z,73.12
2018-04-22T04:15:20.304Z,73.04
2018-04-22T04:21:15.591Z,73.05
2018-04-22T04:27:12.968Z,72.72
2018-04-22T04:29:40.526Z,72.51
2018-04-22T04:32:08.117Z,72.25
2018-04-22T04:34:35.663Z,72.16
2018-04-22T04:37:03.179Z,71.98
2018-04-22T04:39:30.698Z,71.83
2018-04-22T04:41:59.123Z,71.52
2018-04-22T04:44:27.242Z,71.52
2018-04-22T04:46:54.881Z,71.19
2018-04-22T04:49:23.311Z,71.04
2018-04-22T04:51:51.511Z,70.95
2018-04-22T04:54:19.155Z,71.06
2018-04-22T04:56:46.716Z,70.83
2018-04-22T04:59:14.430Z,70.62
2018-04-22T05:01:41.957Z,70.30
2018-04-22T05:04:09.628Z,69.72
2018-04-22T05:06:37.213Z,69.61
2018-04-22T05:09:05.436Z,69.55
2018-04-22T05:11:32.963Z,69.35
2018-04-22T05:14:01.472Z,69.09
2018-04-22T05:16:28.999Z,68.91
2018-04-22T05:18:56.626Z,68.56
2018-04-22T05:21:24.303Z,68.00
2018-04-22T05:23:52.447Z,67.69
2018-04-22T05:26:20.687Z,67.42
2018-04-22T05:28:48.210Z,67.04
2018-04-22T05:31:15.818Z,67.47
2018-04-22T05:33:43.539Z,66.97
2018-04-22T05:36:11.281Z,66.72
2018-04-22T05:38:38.807Z,66.00
2018-04-22T05:41:06.879Z,65.81
2018-04-22T05:43:35.182Z,65.41
2018-04-22T05:46:02.713Z,64.29
2018-04-22T05:48:31.216Z,64.15
2018-04-22T05:50:59.333Z,63.46
2018-04-22T05:53:27.431Z,63.09
2018-04-22T05:55:55.044Z,63.02
2018-04-22T05:58:22.628Z,62.24
2018-04-22T06:00:50.324Z,60.46
2018-04-22T06:03:17.865Z,60.10
2018-04-22T06:05:45.390Z,60.21
2018-04-22T06:08:13.212Z,59.23
2018-04-22T06:10:40.733Z,58.66
2018-04-22T06:13:09.359Z,56.71
2018-04-22T06:15:36.883Z,56.18
2018-04-22T06:18:04.440Z,55.98
2018-04-22T06:20:32.008Z,54.93
2018-04-22T06:23:00.327Z,52.38
2018-04-22T06:25:27.882Z,52.55
2018-04-22T06:27:56.573Z,51.79
2018-04-22T06:30:24.111Z,48.37
2018-04-22T06:32:51.635Z,48.54
2018-04-22T06:35:19.207Z,48.27
2018-04-22T06:37:46.753Z,48.51
2018-04-22T06:40:15.037Z,48.22
2018-04-22T06:42:43.113Z,47.76
2018-04-22T06:45:10.642Z,47.47
2018-04-22T06:47:38.935Z,46.75
2018-04-22T06:50:07.253Z,45.82
2018-04-22T06:52:36.361Z,45.72
2018-04-22T06:55:03.915Z,45.17
2018-04-22T06:57:31.473Z,45.40
2018-04-22T06:59:59.053Z,45.04
2018-04-22T07:02:26.715Z,44.88
2018-04-22T07:04:54.369Z,43.19
2018-04-22T07:07:21.988Z,43.05
2018-04-22T07:09:50.145Z,43.62
2018-04-22T07:12:17.706Z,44.06
2018-04-22T07:14:46.076Z,44.00
2018-04-22T07:17:13.754Z,43.89
2018-04-22T07:19:41.290Z,42.09
2018-04-22T07:22:08.858Z,42.13
2018-04-22T07:24:37.292Z,42.42
2018-04-22T07:27:05.460Z,42.83
2018-04-22T07:29:32.995Z,42.33
2018-04-22T07:32:01.096Z,41.93
2018-04-22T07:34:28.643Z,41.34
2018-04-22T07:36:56.595Z,41.75
2018-04-22T07:39:24.362Z,42.04
2018-04-22T07:41:52.456Z,41.57
2018-04-22T07:44:20.007Z,40.52
2018-04-22T07:46:47.528Z,40.55
2018-04-22T07:49:16.012Z,40.20
2018-04-22T07:51:44.434Z,40.43
2018-04-22T07:54:11.976Z,41.39
2018-04-22T07:56:39.544Z,41.11
2018-04-22T07:59:07.142Z,40.53
2018-04-22T08:01:35.174Z,40.35
2018-04-22T08:04:02.735Z,40.09
2018-04-22T08:06:30.260Z,39.87
2018-04-22T08:08:57.814Z,38.95
2018-04-22T08:11:25.353Z,39.22
2018-04-22T08:13:53.430Z,39.74
2018-04-22T08:16:21.006Z,39.25
2018-04-22T08:18:48.535Z,38.96
2018-04-22T08:21:16.133Z,38.77
2018-04-22T08:23:43.688Z,38.16
2018-04-22T08:26:12.250Z,37.78
2018-04-22T08:28:39.843Z,37.61
2018-04-22T08:31:07.935Z,38.09
2018-04-22T08:33:36.119Z,37.85
2018-04-22T08:36:03.656Z,37.19
2018-04-22T08:38:31.949Z,37.66
2018-04-22T08:41:00.016Z,37.75
2018-04-22T08:43:28.314Z,36.29
2018-04-22T08:45:56.023Z,36.19
2018-04-22T08:48:24.139Z,36.37
2018-04-22T08:50:52.268Z,35.78
2018-04-22T08:53:20.166Z,35.86
2018-04-22T08:55:47.717Z,34.62
2018-04-22T08:58:15.243Z,34.46
2018-04-22T09:00:43.453Z,35.01
2018-04-22T09:03:11.759Z,34.29
2018-04-22T09:05:39.412Z,34.45
2018-04-22T09:08:06.964Z,34.27
2018-04-22T09:10:34.757Z,34.36
2018-04-22T09:13:02.907Z,34.01
2018-04-22T09:15:30.430Z,33.98
2018-04-22T09:17:57.970Z,34.17
2018-04-22T09:20:25.626Z,34.28
2018-04-22T09:22:53.163Z,34.38
2018-04-22T09:25:20.694Z,34.63
2018-04-22T09:27:49.168Z,34.04
2018-04-22T09:30:16.701Z,35.15
2018-04-22T09:32:44.715Z,35.34
2018-04-22T09:35:12.908Z,35.44
2018-04-22T09:37:40.449Z,35.51
2018-04-22T09:40:07.988Z,34.78
2018-04-22T09:42:36.219Z,33.86
2018-04-22T09:45:03.779Z,34.25
2018-04-22T09:47:32.426Z,34.34
2018-04-22T09:50:00.297Z,35.63
2018-04-22T09:52:28.672Z,35.87
2018-04-22T09:54:56.376Z,34.32
2018-04-22T09:57:23.906Z,33.81
2018-04-22T09:59:51.467Z,34.05
2018-04-22T10:02:24.681Z,31.95
2018-04-22T10:04:53.147Z,31.13
2018-04-22T10:07:20.671Z,31.16
2018-04-22T10:09:48.201Z,32.06
2018-04-22T10:12:15.762Z,32.22
2018-04-22T10:14:44.121Z,31.90
2018-04-22T10:17:11.651Z,32.34
2018-04-22T10:19:39.189Z,32.21
2018-04-22T10:22:06.810Z,32.01
2018-04-22T10:24:34.343Z,32.10
2018-04-22T10:27:02.485Z,31.96
2018-04-22T10:29:30.939Z,31.85
2018-04-22T10:31:59.450Z,30.40
2018-04-22T10:34:27.107Z,30.85
2018-04-22T10:36:56.073Z,30.83
2018-04-22T10:39:24.681Z,30.43
2018-04-22T10:41:53.306Z,30.35
2018-04-22T10:44:20.825Z,30.96
2018-04-22T10:46:48.415Z,31.04
2018-04-22T10:49:16.882Z,29.97
2018-04-22T10:51:45.062Z,30.52
2018-04-22T10:54:12.654Z,30.70
2018-04-22T10:56:40.896Z,30.96
2018-04-22T10:59:08.509Z,31.75
2018-04-22T11:01:36.015Z,30.13
2018-04-22T11:04:03.590Z,30.45
2018-04-22T11:06:31.131Z,30.41
2018-04-22T11:08:59.508Z,30.45
2018-04-22T11:11:27.100Z,31.00
2018-04-22T11:13:55.055Z,31.20
2018-04-22T11:16:22.596Z,30.39
2018-04-22T11:18:50.319Z,30.37
2018-04-22T11:21:17.894Z,30.22
2018-04-22T11:23:45.548Z,30.31
2018-04-22T11:26:13.826Z,30.09
2018-04-22T11:28:42.759Z,30.65
2018-04-22T11:31:10.315Z,30.06
2018-04-22T11:33:37.955Z,30.37
2018-04-22T11:36:05.509Z,29.93
2018-04-22T11:38:33.038Z,30.48
2018-04-22T11:41:01.147Z,30.18
2018-04-22T11:43:28.850Z,30.52
2018-04-22T11:45:56.370Z,30.58
2018-04-22T11:48:24.642Z,30.73
2018-04-22T11:50:52.831Z,30.36
2018-04-22T11:53:20.918Z,29.71
2018-04-22T11:55:48.445Z,29.31
2018-04-22T11:58:15.978Z,28.72
2018-04-22T12:00:45.332Z,29.10
2018-04-22T12:03:13.194Z,28.32
2018-04-22T12:05:40.906Z,28.01
2018-04-22T12:08:09.182Z,28.56
2018-04-22T12:10:36.710Z,28.00
2018-04-22T12:13:05.163Z,27.35
2018-04-22T12:15:32.727Z,27.60
2018-04-22T12:18:00.263Z,27.60
2018-04-22T12:20:28.066Z,27.71
2018-04-22T12:22:55.595Z,27.37
2018-04-22T12:25:23.970Z,26.15
2018-04-22T12:27:52.450Z,25.83
2018-04-22T12:30:19.975Z,25.64
2018-04-22T12:32:47.516Z,25.58
2018-04-22T12:35:15.111Z,24.87
2018-04-22T12:37:43.052Z,25.38
2018-04-22T12:40:10.728Z,25.89
2018-04-22T12:42:38.792Z,24.98
2018-04-22T12:45:06.326Z,24.61
2018-04-22T12:47:34.418Z,25.64
2018-04-22T12:50:02.871Z,25.32
2018-04-22T12:52:31.234Z,25.19
2018-04-22T12:54:58.980Z,24.72
2018-04-22T12:57:26.507Z,24.13
2018-04-22T12:59:54.732Z,23.13
2018-04-22T13:02:22.266Z,23.29
2018-04-22T13:04:49.809Z,23.39
2018-04-22T13:07:17.379Z,24.52
2018-04-22T13:09:45.486Z,24.63
2018-04-22T13:12:13.675Z,23.99
2018-04-22T13:14:41.757Z,24.74
2018-04-22T13:17:09.320Z,23.26
2018-04-22T13:19:36.906Z,23.14
2018-04-22T13:22:05.322Z,22.61
2018-04-22T13:24:32.867Z,23.20
2018-04-22T13:27:01.164Z,22.27
2018-04-22T13:29:29.503Z,22.37
2018-04-22T13:31:57.097Z,22.32
2018-04-22T13:34:24.665Z,21.77
2018-04-22T13:36:52.200Z,22.17
2018-04-22T13:39:19.724Z,22.82
2018-04-22T13:41:48.009Z,22.09
2018-04-22T13:44:15.535Z,22.38
2018-04-22T13:46:43.712Z,22.61
2018-04-22T13:49:11.886Z,22.73
2018-04-22T13:51:40.035Z,22.84
2018-04-22T13:54:07.574Z,23.07
2018-04-22T13:56:35.129Z,22.79
2018-04-22T13:59:02.698Z,23.05
2018-04-22T14:01:30.227Z,23.19
2018-04-22T14:03:57.821Z,23.62
2018-04-22T14:06:26.254Z,24.25
2018-04-22T14:08:54.384Z,24.53
2018-04-22T14:11:21.948Z,24.54
2018-04-22T14:13:49.882Z,23.62
2018-04-22T14:16:17.409Z,23.67
2018-04-22T14:18:44.952Z,22.80
2018-04-22T14:21:13.123Z,23.11
2018-04-22T14:23:40.650Z,23.47
2018-04-22T14:26:08.746Z,23.92
2018-04-22T14:28:36.349Z,23.69
2018-04-22T14:31:03.931Z,23.18
2018-04-22T14:33:31.526Z,23.55
2018-04-22T14:35:59.279Z,23.71
2018-04-22T14:38:26.860Z,23.29
2018-04-22T14:40:55.225Z,23.28
2018-04-22T14:43:22.747Z,23.76
2018-04-22T14:46:02.125Z,24.44
2018-04-22T14:48:30.374Z,23.81
2018-04-22T14:50:58.703Z,24.44
2018-04-22T14:53:27.000Z,23.68
2018-04-22T14:55:54.530Z,23.50
2018-04-22T14:58:22.063Z,23.68
2018-04-22T15:00:50.379Z,23.40
2018-04-22T15:03:17.910Z,23.50
2018-04-22T15:05:46.242Z,23.41
2018-04-22T15:08:14.354Z,23.46
2018-04-22T15:10:41.898Z,23.84
2018-04-22T15:13:10.087Z,23.83
2018-04-22T15:15:37.623Z,23.66
2018-04-22T15:18:05.758Z,24.21
2018-04-22T15:20:33.308Z,24.05
2018-04-22T15:23:01.774Z,24.65
2018-04-22T15:25:29.436Z,24.07
2018-04-22T15:27:57.529Z,24.70
2018-04-22T15:30:25.105Z,24.33
2018-04-22T15:32:52.639Z,23.93
2018-04-22T15:35:20.194Z,24.03
2018-04-22T15:37:47.735Z,23.93
2018-04-22T15:40:15.259Z,23.76
2018-04-22T15:42:43.603Z,23.45
2018-04-22T15:45:11.200Z,23.47
2018-04-22T15:47:39.852Z,22.59
2018-04-22T15:50:07.982Z,23.17
2018-04-22T15:52:35.875Z,22.14
2018-04-22T15:55:04.227Z,21.05
2018-04-22T15:57:31.805Z,21.00
2018-04-22T16:00:00.055Z,20.18
2018-04-22T16:02:27.642Z,20.39
2018-04-22T16:04:56.001Z,20.07
2018-04-22T16:07:23.549Z,18.69
2018-04-22T16:09:51.500Z,18.41
2018-04-22T16:12:19.279Z,18.16
2018-04-22T16:14:47.361Z,18.42
2018-04-22T16:17:14.942Z,17.24
2018-04-22T16:19:43.113Z,17.93
2018-04-22T16:22:10.684Z,16.50
2018-04-22T16:24:38.220Z,17.14
2018-04-22T16:27:07.085Z,17.13
2018-04-22T16:29:34.615Z,16.23
2018-04-22T16:32:02.159Z,15.97
2018-04-22T16:34:29.868Z,16.64
2018-04-22T16:36:57.407Z,16.76
2018-04-22T16:39:24.983Z,16.06
2018-04-22T16:41:53.257Z,16.22
2018-04-22T16:44:20.791Z,17.24
2018-04-22T16:46:48.334Z,17.14
2018-04-22T16:49:16.827Z,16.72
2018-04-22T16:51:45.116Z,16.91
2018-04-22T16:54:13.427Z,16.62
2018-04-22T16:56:40.971Z,16.67
2018-04-22T16:59:09.028Z,17.04
2018-04-22T17:01:36.579Z,17.04
2018-04-22T17:04:04.112Z,16.97
2018-04-22T17:06:32.452Z,17.57
2018-04-22T17:09:00.794Z,17.97
2018-04-22T17:11:28.391Z,18.07
2018-04-22T17:13:56.696Z,18.22
2018-04-22T17:16:24.218Z,18.29
2018-04-22T17:18:51.783Z,18.95
2018-04-22T17:21:19.339Z,18.94
2018-04-22T17:23:46.870Z,18.93
2018-04-22T17:26:15.832Z,19.28
2018-04-22T17:28:43.773Z,20.58
2018-04-22T17:31:11.356Z,23.10
2018-04-22T17:33:39.039Z,23.86
2018-04-22T17:36:06.567Z,24.50
2018-04-22T17:38:34.692Z,24.80
2018-04-22T17:41:02.892Z,25.31
2018-04-22T17:43:30.420Z,25.68
2018-04-22T17:45:58.641Z,26.16
2018-04-22T17:48:26.715Z,26.57
2018-04-22T17:50:55.023Z,27.25
2018-04-22T17:53:23.325Z,27.97
2018-04-22T17:55:51.604Z,28.58
2018-04-22T17:58:19.865Z,29.34
2018-04-22T18:00:47.444Z,29.84
2018-04-22T18:03:15.096Z,30.44
2018-04-22T18:05:43.623Z,31.11
2018-04-22T18:08:11.835Z,31.65
2018-04-22T18:10:39.984Z,32.48
2018-04-22T18:13:08.335Z,33.34
2018-04-22T18:15:35.862Z,34.01
2018-04-22T18:18:03.403Z,34.65
2018-04-22T18:20:30.982Z,35.28
2018-04-22T18:22:58.710Z,35.98
2018-04-22T18:25:26.256Z,36.59
2018-04-22T18:27:54.291Z,37.21
2018-04-22T18:30:21.896Z,37.04
2018-04-22T18:32:49.425Z,38.15
2018-04-22T18:35:17.176Z,38.76
2018-04-22T18:37:44.827Z,39.10
2018-04-22T18:40:13.671Z,39.37
2018-04-22T18:42:42.027Z,39.96
2018-04-22T18:45:09.568Z,40.29
2018-04-22T18:47:37.571Z,40.67
2018-04-22T18:50:05.738Z,40.82
2018-04-22T18:52:33.807Z,40.98
2018-04-22T18:55:02.019Z,41.32
2018-04-22T18:57:29.586Z,41.65
2018-04-22T18:59:57.917Z,41.92
2018-04-22T19:02:25.451Z,42.10
2018-04-22T19:04:53.838Z,42.35
2018-04-22T19:07:22.195Z,42.64
2018-04-22T19:09:50.176Z,42.74
2018-04-22T19:12:17.714Z,42.94
2018-04-22T19:14:45.783Z,43.20
2018-04-22T19:17:14.268Z,43.33
2018-04-22T19:19:41.832Z,43.50
2018-04-22T19:22:09.354Z,43.52
2018-04-22T19:24:38.274Z,43.55
2018-04-22T19:27:06.142Z,43.93
2018-04-22T19:29:33.687Z,44.12
2018-04-22T19:32:01.217Z,44.10
2018-04-22T19:34:28.803Z,44.13
2018-04-22T19:36:56.327Z,44.60
2018-04-22T19:39:23.860Z,44.75
2018-04-22T19:41:52.559Z,44.64
2018-04-22T19:44:20.095Z,45.14
2018-04-22T19:46:47.783Z,45.49
2018-04-22T19:49:16.144Z,45.24
2018-04-22T19:51:44.518Z,45.80
2018-04-22T19:54:12.710Z,45.96
2018-04-22T19:56:40.358Z,45.93
2018-04-22T19:59:07.927Z,45.83
2018-04-22T20:01:35.516Z,46.06
2018-04-22T20:04:03.055Z,46.26
2018-04-22T20:06:31.280Z,46.00
2018-04-22T20:08:58.851Z,46.51
2018-04-22T20:11:26.382Z,46.62
2018-04-22T20:13:54.922Z,46.62
2018-04-22T20:16:22.453Z,46.53
2018-04-22T20:18:49.999Z,46.71
2018-04-22T20:21:17.554Z,46.95
2018-04-22T20:23:45.091Z,46.86
2018-04-22T20:26:13.602Z,46.89
2018-04-22T20:28:41.286Z,47.06
2018-04-22T20:31:08.819Z,47.02
2018-04-22T20:33:36.421Z,47.27
2018-04-22T20:36:03.954Z,47.54
2018-04-22T20:38:31.516Z,47.32
2018-04-22T20:40:59.767Z,47.66
2018-04-22T20:43:27.286Z,47.78
2018-04-22T20:45:54.846Z,48.14
2018-04-22T20:48:23.107Z,48.19
2018-04-22T20:50:51.144Z,48.40
2018-04-22T20:53:19.346Z,48.34
2018-04-22T20:55:47.255Z,48.14
2018-04-22T20:58:15.787Z,48.31
2018-04-22T21:00:43.459Z,48.21
2018-04-22T21:03:11.490Z,48.19
2018-04-22T21:05:39.730Z,48.21
2018-04-22T21:08:08.039Z,47.97
2018-04-22T21:10:35.593Z,48.31
2018-04-22T21:13:04.131Z,47.88
2018-04-22T21:15:31.658Z,48.24
2018-04-22T21:18:00.049Z,48.04
2018-04-22T21:20:27.585Z,48.12
2018-04-22T21:22:55.134Z,48.12
2018-04-22T21:25:22.698Z,48.28
2018-04-22T21:27:50.957Z,48.35
2018-04-22T21:30:18.509Z,48.38
2018-04-22T21:32:46.047Z,48.62
2018-04-22T21:35:13.754Z,48.46
2018-04-22T21:37:41.295Z,48.68
2018-04-22T21:40:08.829Z,48.85
2018-04-22T21:42:36.883Z,48.77
2018-04-22T21:45:04.442Z,48.88
2018-04-22T21:47:32.685Z,48.81
2018-04-22T21:50:00.989Z,49.20
2018-04-22T21:52:29.287Z,49.06
2018-04-22T21:54:57.443Z,49.19
2018-04-22T21:57:25.034Z,49.19
2018-04-22T21:59:52.578Z,49.23
2018-04-22T22:02:20.723Z,49.32
2018-04-22T22:04:49.115Z,49.59
2018-04-22T22:07:16.648Z,49.28
2018-04-22T22:09:44.407Z,49.58
2018-04-22T22:12:11.963Z,49.90
2018-04-22T22:14:40.311Z,50.01
2018-04-22T22:17:07.850Z,50.21
2018-04-22T22:19:35.600Z,50.24
2018-04-22T22:22:03.252Z,50.21
2018-04-22T22:24:30.857Z,50.54
2018-04-22T22:26:59.267Z,50.56
2018-04-22T22:29:26.794Z,50.50
2018-04-22T22:31:54.349Z,50.80
2018-04-22T22:34:21.922Z,50.69
2018-04-22T22:36:50.319Z,50.62
2018-04-22T22:39:17.858Z,50.62
2018-04-22T22:41:46.136Z,50.49
2018-04-22T22:44:13.818Z,50.68
2018-04-22T22:46:41.409Z,50.53
2018-04-22T22:49:09.632Z,50.35
2018-04-22T22:51:37.978Z,50.27
2018-04-22T22:54:06.267Z,50.20
2018-04-22T22:56:33.786Z,49.89
2018-04-22T22:59:01.983Z,49.61
2018-04-22T23:01:29.526Z,49.59
2018-04-22T23:03:57.094Z,49.23
2018-04-22T23:06:25.160Z,49.15
2018-04-22T23:08:52.723Z,49.20
2018-04-22T23:11:20.277Z,48.97
2018-04-22T23:13:48.790Z,48.98
2018-04-22T23:16:16.323Z,48.63
2018-04-22T23:18:44.005Z,48.59
2018-04-22T23:21:11.565Z,48.26
2018-04-22T23:23:39.101Z,48.17
2018-04-22T23:26:07.935Z,48.21
2018-04-22T23:28:35.492Z,48.05
2018-04-22T23:31:03.113Z,48.00
2018-04-22T23:33:30.712Z,48.02
2018-04-22T23:35:58.419Z,47.93
2018-04-22T23:38:25.963Z,47.82
2018-04-22T23:40:54.270Z,47.88
2018-04-22T23:43:21.802Z,47.96
2018-04-22T23:45:49.337Z,47.86
2018-04-22T23:48:17.764Z,48.21
2018-04-22T23:50:46.068Z,48.04
2018-04-22T23:53:14.357Z,48.32
2018-04-22T23:55:42.512Z,48.49
2018-04-22T23:58:10.051Z,48.54
